createdAt,value
2023-12-26T00:00:24.642Z,38.983426
2023-12-26T00:05:18.465Z,39.182220
2023-12-26T00:10:18.382Z,39.281617
2023-12-26T00:15:55.584Z,39.182220
2023-12-26T00:20:24.531Z,38.884029
2023-12-26T00:25:24.657Z,39.082823
2023-12-26T00:30:24.875Z,39.082823
2023-12-26T00:35:18.398Z,39.082823
2023-12-26T00:40:16.475Z,38.884029
2023-12-26T00:45:24.692Z,38.884029
2023-12-26T00:50:24.756Z,38.784631
2023-12-26T00:55:18.438Z,38.784631
2023-12-26T01:00:24.606Z,38.784631
2023-12-26T01:05:24.683Z,38.884029
2023-12-26T01:10:24.573Z,38.884029
2023-12-26T01:15:24.889Z,38.983426
2023-12-26T01:20:18.381Z,38.884029
2023-12-26T01:25:18.436Z,38.884029
2023-12-26T01:30:16.808Z,38.784631
2023-12-26T01:35:16.739Z,38.784631
2023-12-26T01:40:24.822Z,38.784631
2023-12-26T01:45:18.605Z,38.884029
2023-12-26T01:50:18.523Z,39.351072
2023-12-26T01:55:18.727Z,39.082823
2023-12-26T02:00:18.684Z,39.082823
2023-12-26T02:05:24.796Z,38.685234
2023-12-26T02:10:24.835Z,38.884029
2023-12-26T02:15:18.711Z,39.450592
2023-12-26T02:20:21.016Z,38.983426
2023-12-26T02:25:17.056Z,39.082823
2023-12-26T02:30:16.673Z,39.281617
2023-12-26T02:35:24.861Z,39.281617
2023-12-26T02:40:18.641Z,39.182220
2023-12-26T02:45:20.677Z,39.649631
2023-12-26T02:50:18.870Z,39.281617
2023-12-26T02:55:24.756Z,39.182220
2023-12-26T03:00:24.806Z,39.182220
2023-12-26T03:05:25.202Z,39.182220
2023-12-26T03:10:18.761Z,39.550112
2023-12-26T03:15:19.025Z,39.649631
2023-12-26T03:20:16.777Z,39.649631
2023-12-26T03:25:18.685Z,39.649631
2023-12-26T03:30:25.241Z,39.749150
2023-12-26T03:35:24.993Z,39.749150
2023-12-26T03:40:24.901Z,39.649631
2023-12-26T03:45:18.847Z,39.381014
2023-12-26T03:50:18.674Z,39.649631
2023-12-26T03:55:19.006Z,39.649631
2023-12-26T04:00:25.047Z,39.649631
2023-12-26T04:05:25.046Z,39.649631
2023-12-26T04:10:16.929Z,39.749150
2023-12-26T04:15:16.918Z,39.649631
2023-12-26T04:20:25.174Z,39.649631
2023-12-26T04:25:18.888Z,39.749150
2023-12-26T04:30:25.242Z,39.749150
2023-12-26T04:35:25.189Z,39.848670
2023-12-26T04:40:18.860Z,39.749150
2023-12-26T04:45:19.133Z,39.749150
2023-12-26T04:50:19.628Z,39.649631
2023-12-26T04:55:25.017Z,39.550112
2023-12-26T05:00:24.352Z,39.351072
2023-12-26T05:05:24.476Z,39.351072
2023-12-26T05:10:24.507Z,39.351072
2023-12-26T05:15:18.222Z,39.351072
2023-12-26T05:20:26.361Z,39.351072
2023-12-26T05:25:18.182Z,39.251553
2023-12-26T05:30:24.562Z,39.152033
2023-12-26T05:35:18.271Z,39.152033
2023-12-26T05:40:24.497Z,39.152033
2023-12-26T05:45:18.354Z,39.152033
2023-12-26T05:50:18.345Z,39.052513
2023-12-26T05:55:18.150Z,39.052513
2023-12-26T06:00:18.268Z,38.952993
2023-12-26T06:05:24.641Z,38.952993
2023-12-26T06:10:16.381Z,38.853472
2023-12-26T06:15:16.244Z,38.753952
2023-12-26T06:20:24.553Z,38.753952
2023-12-26T06:25:18.229Z,38.654432
2023-12-26T06:30:24.621Z,38.455391
2023-12-26T06:35:18.247Z,38.455391
2023-12-26T06:40:18.313Z,38.355870
2023-12-26T06:45:24.633Z,38.256349
2023-12-26T06:50:24.449Z,38.256349
2023-12-26T06:55:24.535Z,38.156828
2023-12-26T07:00:18.347Z,38.156828
2023-12-26T07:05:16.467Z,38.156828
2023-12-26T07:10:16.522Z,38.057307
2023-12-26T07:15:24.720Z,38.057307
2023-12-26T07:20:24.518Z,37.858264
2023-12-26T07:25:18.318Z,37.758743
2023-12-26T07:30:24.569Z,37.659222
2023-12-26T07:35:24.588Z,37.559700
2023-12-26T07:40:18.520Z,37.460178
2023-12-26T07:45:18.379Z,36.995454
2023-12-26T07:50:24.845Z,37.062090
2023-12-26T07:55:24.546Z,37.062090
2023-12-26T08:00:16.642Z,37.161612
2023-12-26T08:05:24.756Z,36.962568
2023-12-26T08:10:18.372Z,36.962568
2023-12-26T08:15:24.656Z,36.863045
2023-12-26T08:20:24.748Z,36.399052
2023-12-26T08:25:24.638Z,36.564478
2023-12-26T08:30:18.565Z,36.464955
2023-12-26T08:35:24.779Z,36.001448
2023-12-26T08:40:18.504Z,35.802645
2023-12-26T08:45:18.576Z,35.703243
2023-12-26T08:50:16.516Z,35.603842
2023-12-26T08:55:16.646Z,35.867815
2023-12-26T09:00:24.917Z,35.668768
2023-12-26T09:05:18.570Z,35.668768
2023-12-26T09:10:24.710Z,35.668768
2023-12-26T09:15:24.932Z,35.569244
2023-12-26T09:20:24.821Z,35.469720
2023-12-26T09:25:24.726Z,35.469720
2023-12-26T09:30:18.719Z,35.469720
2023-12-26T09:35:24.833Z,35.370196
2023-12-26T09:40:24.881Z,35.270672
2023-12-26T09:45:16.967Z,35.270672
2023-12-26T09:50:16.853Z,35.171148
2023-12-26T09:55:18.621Z,35.071624
2023-12-26T10:00:27.118Z,34.872575
2023-12-26T10:05:18.609Z,34.872575
2023-12-26T10:10:18.698Z,34.773050
2023-12-26T10:15:24.978Z,34.773050
2023-12-26T10:20:25.031Z,34.773050
2023-12-26T10:25:18.723Z,34.773050
2023-12-26T10:30:25.093Z,34.673525
2023-12-26T10:35:18.707Z,34.574000
2023-12-26T10:40:16.830Z,34.574000
2023-12-26T10:45:25.166Z,34.574000
2023-12-26T10:50:18.829Z,34.474475
2023-12-26T10:55:24.919Z,34.275425
2023-12-26T11:00:18.985Z,33.715181
2023-12-26T11:05:25.126Z,33.615777
2023-12-26T11:10:25.041Z,33.976848
2023-12-26T11:15:18.822Z,33.976848
2023-12-26T11:20:25.168Z,33.976848
2023-12-26T11:25:25.057Z,33.976848
2023-12-26T11:30:17.025Z,33.976848
2023-12-26T11:35:16.826Z,33.976848
2023-12-26T11:40:18.921Z,33.976848
2023-12-26T11:45:25.179Z,34.076374
2023-12-26T11:50:18.948Z,33.976848
2023-12-26T11:55:25.034Z,34.076374
2023-12-26T12:00:25.288Z,34.175899
2023-12-26T12:05:25.150Z,34.175899
2023-12-26T12:10:25.165Z,34.076374
2023-12-26T12:15:19.135Z,34.076374
2023-12-26T12:20:19.069Z,34.076374
2023-12-26T12:25:17.068Z,33.976848
2023-12-26T12:30:17.042Z,34.076374
2023-12-26T12:35:19.008Z,33.976848
2023-12-26T12:40:25.157Z,33.976848
2023-12-26T12:45:25.433Z,33.976848
2023-12-26T12:50:18.994Z,33.976848
2023-12-26T12:55:28.075Z,34.076374
2023-12-26T13:00:25.261Z,34.076374
2023-12-26T13:05:19.071Z,34.175899
2023-12-26T13:10:25.298Z,34.275425
2023-12-26T13:15:25.283Z,34.275425
2023-12-26T13:20:17.154Z,34.374950
2023-12-26T13:25:25.369Z,34.474475
2023-12-26T13:30:25.328Z,34.673525
2023-12-26T13:35:25.373Z,34.673525
2023-12-26T13:40:19.086Z,34.872575
2023-12-26T13:45:25.361Z,35.071624
2023-12-26T13:50:25.450Z,35.270672
2023-12-26T13:55:25.357Z,35.370196
2023-12-26T14:00:25.410Z,35.569244
2023-12-26T14:05:19.228Z,35.569244
2023-12-26T14:10:19.173Z,35.668768
2023-12-26T14:15:17.157Z,35.768292
2023-12-26T14:20:25.489Z,35.569244
2023-12-26T14:25:19.336Z,35.668768
2023-12-26T14:30:25.552Z,35.469720
2023-12-26T14:35:25.546Z,35.569244
2023-12-26T14:40:19.360Z,35.768292
2023-12-26T14:45:25.544Z,36.066862
2023-12-26T14:50:25.474Z,35.867815
2023-12-26T14:55:19.286Z,35.867815
2023-12-26T15:00:19.209Z,35.867815
2023-12-26T15:05:17.384Z,36.166386
2023-12-26T15:10:17.461Z,36.365432
2023-12-26T15:15:25.669Z,36.863045
2023-12-26T15:20:19.316Z,37.062090
2023-12-26T15:25:25.598Z,37.360656
2023-12-26T15:30:25.752Z,37.659222
2023-12-26T15:35:19.327Z,37.758743
2023-12-26T15:40:25.722Z,38.156828
2023-12-26T15:45:25.695Z,38.256349
2023-12-26T15:50:25.600Z,38.753952
2023-12-26T15:55:25.583Z,39.152033
2023-12-26T16:00:17.579Z,39.152033
2023-12-26T16:05:25.684Z,39.152033
2023-12-26T16:10:25.739Z,39.251553
2023-12-26T16:15:25.583Z,39.450592
2023-12-26T16:20:25.736Z,39.749150
2023-12-26T16:25:19.361Z,39.848670
2023-12-26T16:30:25.772Z,40.445782
2023-12-26T16:35:25.652Z,40.943374
2023-12-26T16:40:19.304Z,41.510038
2023-12-26T16:45:23.706Z,42.008235
2023-12-26T16:50:17.572Z,42.207514
2023-12-26T16:55:17.599Z,42.307153
2023-12-26T17:00:19.618Z,42.606070
2023-12-26T17:05:19.551Z,42.705709
2023-12-26T17:10:23.789Z,42.904986
2023-12-26T17:15:23.767Z,43.104263
2023-12-26T17:20:23.742Z,43.403178
2023-12-26T17:25:23.665Z,43.602454
2023-12-26T17:30:15.694Z,43.901368
2023-12-26T17:35:15.589Z,44.001006
2023-12-26T17:40:23.832Z,44.100643
2023-12-26T17:45:17.783Z,44.028377
2023-12-26T17:50:54.943Z,44.127892
2023-12-26T17:55:17.670Z,44.127892
2023-12-26T18:00:17.711Z,44.326921
2023-12-26T18:05:16.470Z,44.326921
2023-12-26T18:10:23.908Z,44.724977
2023-12-26T18:15:17.661Z,45.123031
2023-12-26T18:20:23.825Z,45.245176
2023-12-26T18:25:15.648Z,45.543341
2023-12-26T18:30:23.968Z,45.562276
2023-12-26T18:35:24.134Z,45.959323
2023-12-26T18:40:23.912Z,45.974361
2023-12-26T18:45:17.689Z,46.084948
2023-12-26T18:50:17.609Z,46.290627
2023-12-26T18:55:23.939Z,46.097889
2023-12-26T19:00:17.812Z,45.799394
2023-12-26T19:05:23.999Z,45.694585
2023-12-26T19:10:23.899Z,45.891269
2023-12-26T19:15:15.971Z,45.375986
2023-12-26T19:20:15.790Z,45.572123
2023-12-26T19:25:17.737Z,45.572123
2023-12-26T19:30:17.860Z,45.260251
2023-12-26T19:35:24.107Z,45.162322
2023-12-26T19:40:23.988Z,45.162322
2023-12-26T19:45:17.928Z,45.064392
2023-12-26T19:50:24.020Z,44.966462
2023-12-26T19:55:17.768Z,45.179849
2023-12-26T20:00:17.808Z,45.389751
2023-12-26T20:05:24.127Z,45.291544
2023-12-26T20:10:16.000Z,44.983709
2023-12-26T20:15:15.829Z,44.885639
2023-12-26T20:20:17.961Z,44.787568
2023-12-26T20:25:24.114Z,44.689497
2023-12-26T20:30:24.254Z,44.898712
2023-12-26T20:35:24.065Z,44.800503
2023-12-26T20:40:24.077Z,44.604083
2023-12-26T20:45:24.186Z,44.809487
2023-12-26T20:50:17.896Z,44.416101
2023-12-26T20:55:17.929Z,44.022708
2023-12-26T21:00:17.915Z,44.125225
2023-12-26T21:05:16.061Z,44.224227
2023-12-26T21:10:24.105Z,43.829758
2023-12-26T21:15:24.279Z,44.023537
2023-12-26T21:20:24.120Z,43.924788
2023-12-26T21:25:24.085Z,43.826038
2023-12-26T21:30:18.116Z,43.529786
2023-12-26T21:35:17.999Z,43.620924
2023-12-26T21:40:24.245Z,43.423161
2023-12-26T21:45:24.201Z,43.324279
2023-12-26T21:50:18.113Z,42.928749
2023-12-26T21:55:16.000Z,42.632099
2023-12-26T22:00:16.150Z,42.335446
2023-12-26T22:05:17.987Z,42.322595
2023-12-26T22:10:24.273Z,42.124567
2023-12-26T22:15:24.746Z,41.926539
2023-12-26T22:20:18.009Z,42.107987
2023-12-26T22:25:18.102Z,41.711419
2023-12-26T22:30:24.442Z,41.513134
2023-12-26T22:35:18.301Z,41.215705
2023-12-26T22:40:18.184Z,41.215705
2023-12-26T22:45:18.152Z,41.017418
2023-12-26T22:50:16.263Z,40.521697
2023-12-26T22:55:16.176Z,40.125117
2023-12-26T23:00:18.254Z,40.025971
2023-12-26T23:05:20.894Z,39.728534
2023-12-26T23:10:24.406Z,39.530241
2023-12-26T23:15:24.379Z,39.804796
2023-12-26T23:20:24.368Z,39.804796
2023-12-26T23:25:24.419Z,39.606252
2023-12-26T23:30:24.461Z,39.407708
2023-12-26T23:35:24.432Z,39.109890
2023-12-26T23:40:16.258Z,39.010617
2023-12-26T23:45:16.483Z,38.911344
2023-12-26T23:50:24.575Z,38.812071
2023-12-26T23:55:18.273Z,38.613524
